Time;durP1;ratioP1;P1;durP2;ratioP2;P2;SDS_P1;SDS_P2;PMS_P1;PMS_P2;Temp;Humidity;BMP_temperature;BMP_pressure;BME280_temperature;BME280_humidity;BME280_pressure;Samples;Min_cycle;Max_cycle;Signal;HPM_P1;HPM_P2
2023/05/06 00:00:16;;;;;;;18.67;12.10;;;;;;;8.19;80.15;93544.56;515730;28;862;-59
2023/05/06 00:00:31;;;;;;;19.45;12.60;;;;;;;8.24;80.22;93537.47;515841;28;872;-59
2023/05/06 00:00:47;;;;;;;16.67;12.43;;;;;;;8.26;80.59;93546.72;516024;28;813;-59
2023/05/06 00:01:02;;;;;;;16.50;11.93;;;;;;;8.24;80.13;93538.22;515679;28;793;-59
2023/05/06 00:01:19;;;;;;;17.37;12.50;;;;;;;8.27;80.29;93539.22;515756;28;845;-59
2023/05/06 00:01:35;;;;;;;17.13;12.40;;;;;;;8.30;80.14;93541.63;514490;28;1016;-59
2023/05/06 00:01:50;;;;;;;16.10;11.88;;;;;;;8.34;80.28;93542.03;515184;28;1216;-59
2023/05/06 00:02:07;;;;;;;17.83;12.48;;;;;;;8.38;80.20;93547.25;515742;28;849;-59
2023/05/06 00:02:26;;;;;;;18.13;13.35;;;;;;;8.44;79.74;93534.09;515029;28;1470;-58
2023/05/06 00:02:42;;;;;;;17.40;13.23;;;;;;;8.44;79.46;93539.59;513657;28;899;-59
2023/05/06 00:02:59;;;;;;;18.70;13.03;;;;;;;8.43;79.72;93532.59;516103;28;820;-59
2023/05/06 00:03:14;;;;;;;18.45;13.35;;;;;;;8.44;79.29;93542.34;513927;28;914;-59
2023/05/06 00:03:30;;;;;;;16.80;12.37;;;;;;;8.42;79.22;93536.66;513809;28;805;-59
2023/05/06 00:03:45;;;;;;;17.52;12.05;;;;;;;8.42;79.31;93539.41;514537;28;859;-59
2023/05/06 00:04:01;;;;;;;17.53;12.73;;;;;;;8.40;79.05;93534.41;514737;28;1046;-59
2023/05/06 00:04:16;;;;;;;16.20;13.18;;;;;;;8.26;79.14;93527.47;515779;28;869;-59
2023/05/06 00:04:32;;;;;;;17.20;13.40;;;;;;;8.38;79.09;93536.22;515415;28;1727;-59
2023/05/06 00:04:47;;;;;;;18.45;13.57;;;;;;;8.39;79.11;93532.19;513599;28;832;-59
2023/05/06 00:05:03;;;;;;;17.23;12.77;;;;;;;8.40;79.05;93537.16;513727;28;845;-59
2023/05/06 00:05:19;;;;;;;15.50;12.20;;;;;;;8.44;79.30;93533.34;513735;28;868;-59
2023/05/06 00:05:34;;;;;;;15.18;11.60;;;;;;;8.46;79.28;93537.06;515006;28;1092;-59
2023/05/06 00:05:50;;;;;;;15.27;11.47;;;;;;;8.51;78.92;93538.22;513775;28;881;-59
2023/05/06 00:06:07;;;;;;;19.48;12.25;;;;;;;8.43;79.21;93529.84;513814;28;845;-59
2023/05/06 00:06:23;;;;;;;22.77;12.27;;;;;;;8.42;79.25;93538.66;513704;28;927;-59
2023/05/06 00:06:38;;;;;;;24.37;11.73;;;;;;;8.33;79.32;93537.09;513786;28;1389;-59
2023/05/06 00:06:55;;;;;;;19.90;11.67;;;;;;;8.25;79.91;93541.72;514641;28;958;-59
2023/05/06 00:07:11;;;;;;;16.17;11.75;;;;;;;8.15;80.12;93530.41;515435;28;1691;-59
2023/05/06 00:07:26;;;;;;;15.40;11.25;;;;;;;8.15;80.44;93543.41;513886;28;833;-59
2023/05/06 00:07:42;;;;;;;13.40;10.98;;;;;;;8.11;80.73;93543.00;515885;28;789;-59
2023/05/06 00:07:57;;;;;;;14.00;11.77;;;;;;;8.07;81.00;93545.34;516112;28;868;-59
2023/05/06 00:08:13;;;;;;;14.43;11.63;;;;;;;8.00;81.31;93537.72;515734;28;948;-59
2023/05/06 00:08:28;;;;;;;15.50;11.73;;;;;;;7.90;82.04;93533.94;515627;28;1210;-59
2023/05/06 00:08:44;;;;;;;15.97;11.60;;;;;;;7.82;82.54;93539.31;515697;28;1926;-59
2023/05/06 00:09:00;;;;;;;15.35;10.82;;;;;;;7.78;82.72;93536.13;515797;28;919;-59
2023/05/06 00:09:15;;;;;;;15.50;10.73;;;;;;;7.75;83.13;93537.22;515721;28;858;-59
2023/05/06 00:09:30;;;;;;;15.90;10.97;;;;;;;7.75;83.43;93533.72;515691;28;884;-59
2023/05/06 00:09:47;;;;;;;15.70;11.00;;;;;;;7.73;83.33;93539.00;516003;28;852;-59
2023/05/06 00:10:03;;;;;;;15.55;10.90;;;;;;;7.76;83.49;93535.19;515552;28;1162;-59
2023/05/06 00:10:18;;;;;;;13.85;10.93;;;;;;;7.80;83.58;93532.84;515716;28;782;-59
2023/05/06 00:10:33;;;;;;;14.20;10.77;;;;;;;7.76;83.57;93521.44;515793;28;818;-59
2023/05/06 00:10:49;;;;;;;14.30;10.53;;;;;;;7.91;83.61;93530.63;516081;28;810;-59
2023/05/06 00:11:04;;;;;;;12.68;10.60;;;;;;;7.98;83.37;93534.75;515673;28;790;-59
2023/05/06 00:11:20;;;;;;;13.00;10.77;;;;;;;8.05;83.26;93537.63;515757;28;833;-59
2023/05/06 00:11:35;;;;;;;14.82;10.90;;;;;;;8.13;82.95;93548.72;515610;28;1627;-59
2023/05/06 00:11:50;;;;;;;14.97;10.70;;;;;;;8.17;82.80;93543.63;516770;28;844;-59
2023/05/06 00:12:06;;;;;;;15.73;11.07;;;;;;;8.18;82.47;93545.13;515870;28;896;-59
2023/05/06 00:12:21;;;;;;;15.53;11.10;;;;;;;8.22;82.36;93538.03;515796;28;855;-59
2023/05/06 00:12:37;;;;;;;14.80;10.60;;;;;;;8.25;82.09;93536.97;515662;28;951;-59
2023/05/06 00:12:52;;;;;;;14.10;10.77;;;;;;;8.31;81.93;93542.38;515580;28;1003;-59
2023/05/06 00:13:08;;;;;;;12.80;10.15;;;;;;;8.32;81.51;93541.84;516969;28;1952;-59
2023/05/06 00:13:23;;;;;;;13.03;9.50;;;;;;;8.35;81.15;93534.53;517969;28;937;-59
2023/05/06 00:13:40;;;;;;;15.70;9.93;;;;;;;8.38;81.17;93534.19;518096;28;767;-59
2023/05/06 00:13:55;;;;;;;15.95;9.98;;;;;;;8.43;81.03;93540.84;518393;28;837;-59
2023/05/06 00:14:11;;;;;;;20.90;9.93;;;;;;;8.38;80.83;93525.22;518026;28;955;-59
2023/05/06 00:14:26;;;;;;;37.90;10.35;;;;;;;8.47;80.66;93533.00;517896;28;853;-59
2023/05/06 00:14:42;;;;;;;49.10;10.80;;;;;;;8.50;80.66;93540.22;516194;28;1422;-59
2023/05/06 00:14:57;;;;;;;32.85;10.70;;;;;;;8.52;80.36;93534.91;517851;28;1018;-58
2023/05/06 00:15:13;;;;;;;23.30;11.17;;;;;;;8.55;80.19;93533.13;516123;28;837;-59
2023/05/06 00:15:28;;;;;;;22.35;11.65;;;;;;;8.55;80.12;93528.34;516019;28;916;-59
2023/05/06 00:15:43;;;;;;;18.07;11.23;;;;;;;8.57;80.12;93536.81;516232;28;1177;-59
2023/05/06 00:15:59;;;;;;;14.33;10.53;;;;;;;8.57;80.17;93531.31;516158;28;1263;-59
2023/05/06 00:16:14;;;;;;;12.93;10.23;;;;;;;8.58;79.90;93538.28;514200;28;809;-59
2023/05/06 00:16:30;;;;;;;12.57;10.20;;;;;;;8.55;79.83;93533.13;514159;28;843;-59
2023/05/06 00:16:45;;;;;;;13.25;10.25;;;;;;;8.57;79.68;93530.56;517217;28;1297;-59
2023/05/06 00:17:00;;;;;;;14.13;10.70;;;;;;;8.54;79.35;93537.13;514126;28;833;-59
2023/05/06 00:17:16;;;;;;;13.70;10.77;;;;;;;8.50;79.37;93531.97;514042;28;1564;-59
2023/05/06 00:17:32;;;;;;;13.70;10.43;;;;;;;8.48;79.20;93536.50;514234;28;1052;-59
2023/05/06 00:17:47;;;;;;;13.98;10.20;;;;;;;8.47;79.33;93527.50;516446;28;920;-58
2023/05/06 00:18:02;;;;;;;14.50;10.50;;;;;;;8.49;79.20;93535.97;515195;28;908;-57
2023/05/06 00:18:18;;;;;;;14.87;10.63;;;;;;;8.46;79.17;93523.28;514208;28;857;-58
2023/05/06 00:18:33;;;;;;;15.10;10.68;;;;;;;8.51;79.18;93533.44;514050;28;1113;-58
2023/05/06 00:18:49;;;;;;;14.13;10.73;;;;;;;8.47;79.34;93530.25;515196;28;888;-59
2023/05/06 00:19:05;;;;;;;12.10;10.25;;;;;;;8.50;79.42;93526.47;515982;28;1083;-59
2023/05/06 00:19:20;;;;;;;13.13;10.30;;;;;;;8.54;79.29;93534.38;516126;28;866;-58
2023/05/06 00:19:37;;;;;;;13.60;10.30;;;;;;;8.57;79.41;93525.06;516143;28;820;-58
2023/05/06 00:19:53;;;;;;;14.73;10.40;;;;;;;8.59;79.67;93534.28;516509;28;912;-59
2023/05/06 00:20:11;;;;;;;12.88;9.95;;;;;;;8.57;79.17;93528.56;514153;28;1370;-59
2023/05/06 00:20:27;;;;;;;13.00;10.02;;;;;;;8.56;79.13;93535.31;514059;28;954;-59
2023/05/06 00:20:43;;;;;;;13.73;10.23;;;;;;;8.58;79.37;93534.78;515665;28;1121;-59
2023/05/06 00:20:58;;;;;;;13.65;9.98;;;;;;;8.60;79.13;93529.50;515381;28;849;-59
2023/05/06 00:21:13;;;;;;;13.37;9.70;;;;;;;8.61;79.03;93537.22;514079;28;857;-58
2023/05/06 00:21:29;;;;;;;12.63;9.53;;;;;;;8.49;78.75;93524.97;514080;28;860;-58
2023/05/06 00:21:44;;;;;;;14.18;10.10;;;;;;;8.54;78.78;93529.63;514555;28;878;-58
2023/05/06 00:22:00;;;;;;;14.03;10.23;;;;;;;8.51;78.95;93530.69;516140;28;1172;-58
2023/05/06 00:22:15;;;;;;;12.30;10.05;;;;;;;8.52;79.23;93532.16;516131;28;963;-58
2023/05/06 00:22:31;;;;;;;12.53;10.07;;;;;;;8.51;79.16;93527.91;516215;28;862;-58
2023/05/06 00:22:46;;;;;;;13.57;10.25;;;;;;;8.55;78.95;93528.34;515935;28;844;-58
2023/05/06 00:23:02;;;;;;;14.37;10.40;;;;;;;8.59;78.82;93536.28;514190;28;812;-58
2023/05/06 00:23:17;;;;;;;14.95;10.23;;;;;;;8.61;78.61;93539.97;514099;28;770;-58
2023/05/06 00:23:32;;;;;;;13.80;10.20;;;;;;;8.52;78.48;93515.66;514325;28;1120;-57
2023/05/06 00:23:48;;;;;;;12.33;10.10;;;;;;;8.66;78.09;93541.13;516447;28;790;-57
2023/05/06 00:24:04;;;;;;;11.95;9.90;;;;;;;8.66;77.85;93536.38;516171;28;848;-58
2023/05/06 00:24:19;;;;;;;13.15;10.18;;;;;;;8.54;78.01;93542.63;516138;28;1125;-58
2023/05/06 00:24:35;;;;;;;14.07;10.13;;;;;;;8.45;78.00;93535.56;515525;28;1680;-58
2023/05/06 00:24:50;;;;;;;14.77;10.30;;;;;;;8.37;78.14;93535.50;515444;28;869;-58
2023/05/06 00:25:06;;;;;;;14.38;10.52;;;;;;;8.33;78.47;93539.84;515930;28;1119;-58
2023/05/06 00:25:21;;;;;;;14.13;10.10;;;;;;;8.29;78.51;93539.41;516163;28;884;-58
2023/05/06 00:25:36;;;;;;;14.75;10.23;;;;;;;8.25;78.57;93541.72;516041;28;885;-58
2023/05/06 00:25:53;;;;;;;13.70;10.23;;;;;;;8.25;78.71;93536.97;516228;28;1345;-58
2023/05/06 00:26:09;;;;;;;13.93;10.15;;;;;;;8.27;78.89;93539.22;515977;28;861;-58
2023/05/06 00:26:24;;;;;;;14.77;10.10;;;;;;;8.30;78.65;93540.88;515977;28;835;-58
2023/05/06 00:26:40;;;;;;;14.13;9.90;;;;;;;8.33;78.97;93531.56;515746;28;1187;-58
2023/05/06 00:26:55;;;;;;;13.57;10.13;;;;;;;8.36;78.64;93533.25;516000;28;835;-58
2023/05/06 00:27:10;;;;;;;11.70;9.65;;;;;;;8.38;78.62;93541.75;515926;28;994;-58
2023/05/06 00:27:26;;;;;;;11.83;9.40;;;;;;;8.38;78.58;93530.72;515806;28;1663;-58
2023/05/06 00:27:41;;;;;;;14.18;10.27;;;;;;;8.33;78.42;93543.34;516026;28;867;-58
2023/05/06 00:27:57;;;;;;;14.77;10.63;;;;;;;8.28;78.75;93537.94;516420;28;884;-58
2023/05/06 00:28:12;;;;;;;14.17;10.50;;;;;;;8.21;78.65;93533.03;516061;28;1012;-58
2023/05/06 00:28:27;;;;;;;13.57;10.18;;;;;;;8.15;79.04;93535.91;514416;28;885;-58
2023/05/06 00:28:43;;;;;;;13.70;10.30;;;;;;;8.08;79.09;93527.56;514155;28;1985;-58
2023/05/06 00:28:58;;;;;;;13.87;10.90;;;;;;;7.98;79.62;93532.75;516304;28;919;-58
2023/05/06 00:29:13;;;;;;;13.30;10.98;;;;;;;7.95;79.92;93531.06;516149;28;824;-58
2023/05/06 00:29:29;;;;;;;13.07;10.70;;;;;;;7.92;79.90;93534.88;516012;28;893;-58
2023/05/06 00:29:44;;;;;;;12.82;10.48;;;;;;;7.86;80.57;93528.72;516172;28;1139;-58
2023/05/06 00:30:00;;;;;;;14.03;10.03;;;;;;;7.74;80.67;93513.00;516073;28;909;-58
2023/05/06 00:30:15;;;;;;;14.45;10.40;;;;;;;7.88;81.00;93531.72;516130;28;841;-57
2023/05/06 00:30:31;;;;;;;15.13;11.17;;;;;;;7.92;80.95;93531.38;516134;28;992;-58
2023/05/06 00:30:46;;;;;;;15.70;10.90;;;;;;;7.97;81.05;93536.03;515977;28;1142;-58
2023/05/06 00:31:01;;;;;;;15.57;10.60;;;;;;;7.99;80.99;93534.22;514898;28;1597;-57
2023/05/06 00:31:17;;;;;;;15.20;10.67;;;;;;;8.05;80.67;93536.88;514080;28;874;-58
2023/05/06 00:31:32;;;;;;;15.37;10.83;;;;;;;8.08;80.83;93533.81;514135;28;881;-58
2023/05/06 00:31:47;;;;;;;17.10;10.98;;;;;;;8.13;80.63;93540.47;515040;28;893;-58
2023/05/06 00:32:03;;;;;;;16.43;10.80;;;;;;;8.17;80.57;93532.63;516078;28;841;-58
2023/05/06 00:32:18;;;;;;;15.85;10.50;;;;;;;8.22;80.13;93531.78;517416;28;1132;-58
2023/05/06 00:32:34;;;;;;;16.50;10.80;;;;;;;8.25;80.17;93527.97;517694;28;853;-58
2023/05/06 00:32:49;;;;;;;13.40;9.90;;;;;;;8.28;79.65;93535.94;516353;28;844;-58
2023/05/06 00:33:04;;;;;;;11.32;9.35;;;;;;;8.32;79.98;93528.09;516088;28;811;-58
2023/05/06 00:33:20;;;;;;;11.77;9.73;;;;;;;8.24;79.68;93532.72;516110;28;865;-58
2023/05/06 00:33:35;;;;;;;11.90;9.53;;;;;;;8.08;79.96;93527.56;515117;28;1674;-57
2023/05/06 00:33:51;;;;;;;13.25;9.63;;;;;;;8.08;80.08;93536.56;515545;28;944;-58
2023/05/06 00:34:06;;;;;;;13.50;9.87;;;;;;;8.04;80.50;93527.88;515415;28;899;-57
2023/05/06 00:34:21;;;;;;;13.65;9.43;;;;;;;8.04;80.50;93535.38;514153;28;915;-58
2023/05/06 00:34:37;;;;;;;13.33;9.67;;;;;;;7.98;80.75;93532.00;514017;28;1802;-58
2023/05/06 00:34:52;;;;;;;13.23;10.60;;;;;;;7.95;81.18;93527.59;515215;28;852;-58
2023/05/06 00:35:08;;;;;;;15.18;10.43;;;;;;;7.89;81.16;93518.69;513965;28;940;-58
2023/05/06 00:35:23;;;;;;;14.52;10.45;;;;;;;7.94;81.42;93526.09;514152;28;794;-58
2023/05/06 00:35:39;;;;;;;13.93;10.87;;;;;;;7.98;81.39;93523.75;515019;28;1084;-58
2023/05/06 00:35:54;;;;;;;14.20;11.13;;;;;;;8.02;81.22;93526.94;516438;28;931;-58
2023/05/06 00:36:09;;;;;;;14.18;11.23;;;;;;;7.95;81.09;93524.84;516098;28;1504;-58
2023/05/06 00:36:25;;;;;;;14.00;10.70;;;;;;;7.83;80.93;93529.06;516043;28;853;-58
2023/05/06 00:36:41;;;;;;;12.63;10.27;;;;;;;7.81;81.32;93523.34;516027;28;1000;-58
2023/05/06 00:36:56;;;;;;;13.15;10.55;;;;;;;7.84;81.28;93523.03;516378;28;959;-58
2023/05/06 00:37:12;;;;;;;14.03;10.67;;;;;;;7.87;81.31;93519.22;515947;28;1126;-58
2023/05/06 00:37:28;;;;;;;13.77;10.83;;;;;;;7.92;81.39;93525.88;514005;28;774;-58
2023/05/06 00:37:54;;;;;;;13.65;10.82;;;;;;;7.98;81.20;93521.00;514069;28;1350;-58
2023/05/06 00:38:12;;;;;;;14.55;10.50;;;;;;;8.05;81.22;93526.63;514149;28;813;-58
2023/05/06 00:38:27;;;;;;;16.13;10.40;;;;;;;8.01;80.69;93525.47;514054;28;865;-58
2023/05/06 00:38:42;;;;;;;15.80;10.93;;;;;;;7.99;80.89;93520.47;515534;28;1128;-58
2023/05/06 00:38:58;;;;;;;13.48;10.70;;;;;;;8.00;80.88;93521.22;515704;28;860;-58
2023/05/06 00:39:13;;;;;;;13.80;10.40;;;;;;;8.03;81.01;93520.19;516062;28;1012;-57
2023/05/06 00:39:29;;;;;;;14.55;10.20;;;;;;;7.90;80.80;93500.94;514915;28;819;-58
2023/05/06 00:39:44;;;;;;;13.00;10.03;;;;;;;8.08;80.61;93525.56;514541;28;817;-58
2023/05/06 00:39:59;;;;;;;11.98;9.35;;;;;;;8.11;80.52;93530.00;516200;28;844;-58
2023/05/06 00:40:16;;;;;;;12.03;8.30;;;;;;;8.14;80.56;93528.91;515999;28;1143;-58
2023/05/06 00:40:31;;;;;;;12.05;8.65;;;;;;;8.16;80.26;93526.41;515796;28;1731;-58
2023/05/06 00:40:46;;;;;;;11.83;9.20;;;;;;;8.18;80.48;93523.84;516008;28;936;-58
2023/05/06 00:41:02;;;;;;;12.20;8.93;;;;;;;8.14;80.25;93517.19;515860;28;853;-58
2023/05/06 00:41:17;;;;;;;11.20;8.73;;;;;;;8.23;80.34;93525.75;515875;28;856;-58
2023/05/06 00:41:33;;;;;;;11.57;8.98;;;;;;;8.24;80.35;93527.22;515913;28;1195;-58
2023/05/06 00:41:48;;;;;;;12.63;9.00;;;;;;;8.24;80.10;93526.47;516209;28;1099;-58
2023/05/06 00:42:04;;;;;;;11.35;8.82;;;;;;;8.19;80.18;93524.56;515996;28;833;-58
2023/05/06 00:42:22;;;;;;;11.23;9.30;;;;;;;8.19;80.09;93524.56;515941;28;817;-58
2023/05/06 00:42:37;;;;;;;12.57;9.65;;;;;;;8.18;80.34;93520.38;515961;28;865;-58
2023/05/06 00:42:52;;;;;;;12.23;9.93;;;;;;;8.21;80.21;93522.03;516455;28;928;-58
2023/05/06 00:43:08;;;;;;;11.40;9.75;;;;;;;8.21;80.07;93520.03;515138;28;1547;-58
2023/05/06 00:43:23;;;;;;;11.43;9.43;;;;;;;8.19;80.06;93524.56;514041;28;873;-58
2023/05/06 00:43:38;;;;;;;12.83;9.50;;;;;;;8.13;80.20;93521.97;514082;28;935;-58
2023/05/06 00:43:54;;;;;;;13.02;9.43;;;;;;;8.13;80.02;93521.22;515915;28;939;-58
2023/05/06 00:44:09;;;;;;;11.73;9.23;;;;;;;8.08;80.55;93524.81;516131;28;777;-58
2023/05/06 00:44:25;;;;;;;11.02;9.27;;;;;;;8.07;80.48;93526.09;516022;28;826;-58
2023/05/06 00:44:40;;;;;;;10.17;8.70;;;;;;;8.07;80.67;93523.34;515199;28;1485;-58
2023/05/06 00:44:55;;;;;;;10.10;8.57;;;;;;;8.08;80.82;93519.31;516356;28;869;-58
2023/05/06 00:45:11;;;;;;;12.20;8.85;;;;;;;8.09;80.83;93521.53;516071;28;840;-58
2023/05/06 00:45:26;;;;;;;14.20;9.30;;;;;;;8.14;80.91;93522.69;516036;28;794;-58
2023/05/06 00:45:41;;;;;;;12.20;9.30;;;;;;;8.16;80.57;93522.91;515893;28;911;-59
2023/05/06 00:45:57;;;;;;;11.60;8.82;;;;;;;8.17;80.90;93518.88;516204;28;864;-58
2023/05/06 00:46:14;;;;;;;13.10;9.17;;;;;;;8.17;80.87;93527.88;515946;28;1202;-58
2023/05/06 00:46:30;;;;;;;12.57;9.05;;;;;;;8.01;81.70;93522.72;515931;28;869;-58
2023/05/06 00:46:45;;;;;;;12.77;8.93;;;;;;;7.81;81.89;93526.09;516170;28;877;-58
2023/05/06 00:47:01;;;;;;;12.20;8.75;;;;;;;7.73;82.40;93517.75;515940;28;884;-58
2023/05/06 00:47:17;;;;;;;11.00;8.43;;;;;;;7.74;82.85;93515.75;513830;28;856;-58
2023/05/06 00:47:32;;;;;;;10.48;8.13;;;;;;;7.76;82.78;93516.69;513779;28;1653;-58
2023/05/06 00:47:47;;;;;;;12.20;8.30;;;;;;;7.82;82.95;93522.81;516107;28;1167;-58
2023/05/06 00:48:04;;;;;;;12.17;8.33;;;;;;;7.88;82.94;93522.72;515901;28;870;-58
2023/05/06 00:48:19;;;;;;;10.43;8.10;;;;;;;7.91;82.69;93519.66;514611;28;1397;-58
2023/05/06 00:48:35;;;;;;;9.35;7.53;;;;;;;7.96;82.45;93518.06;513869;28;910;-58
2023/05/06 00:48:51;;;;;;;9.67;7.50;;;;;;;7.96;82.49;93515.31;515207;28;1979;-58
2023/05/06 00:49:06;;;;;;;13.73;8.63;;;;;;;7.99;82.24;93519.75;515892;28;883;-58
2023/05/06 00:49:22;;;;;;;12.43;8.73;;;;;;;8.03;82.28;93518.16;515878;28;1159;-58
2023/05/06 00:49:38;;;;;;;10.63;8.52;;;;;;;8.06;82.17;93522.59;515944;28;957;-58
2023/05/06 00:49:53;;;;;;;12.37;8.93;;;;;;;8.04;81.97;93521.63;516004;28;2278;-58
2023/05/06 00:50:09;;;;;;;13.73;9.57;;;;;;;8.05;82.08;93531.38;515903;28;828;-58
2023/05/06 00:50:27;;;;;;;13.77;9.23;;;;;;;8.04;81.77;93529.88;515850;28;829;-58
2023/05/06 00:50:42;;;;;;;14.68;8.85;;;;;;;8.02;81.75;93527.69;515988;28;908;-58
2023/05/06 00:50:58;;;;;;;12.35;8.98;;;;;;;8.03;81.90;93522.94;512172;28;1559;-58
2023/05/06 00:51:13;;;;;;;11.30;9.30;;;;;;;8.05;81.89;93525.88;513859;28;803;-59
2023/05/06 00:51:29;;;;;;;11.65;9.60;;;;;;;8.08;81.62;93533.06;513880;28;849;-58
2023/05/06 00:51:45;;;;;;;11.10;9.13;;;;;;;8.09;81.76;93529.78;514169;28;893;-59
2023/05/06 00:52:00;;;;;;;11.50;8.60;;;;;;;8.14;81.50;93528.19;513846;28;1024;-58
2023/05/06 00:52:16;;;;;;;10.83;8.70;;;;;;;8.14;81.33;93526.16;513805;28;985;-58
2023/05/06 00:52:32;;;;;;;10.65;9.10;;;;;;;8.16;80.97;93523.66;513965;28;916;-59
2023/05/06 00:52:48;;;;;;;12.03;9.10;;;;;;;8.18;80.92;93520.38;514935;28;840;-58
2023/05/06 00:53:04;;;;;;;12.25;9.00;;;;;;;8.07;80.86;93504.09;517988;28;781;-58
2023/05/06 00:53:23;;;;;;;12.45;9.07;;;;;;;8.21;80.64;93516.53;518131;28;970;-58
2023/05/06 00:53:38;;;;;;;12.20;8.88;;;;;;;8.22;80.46;93523.53;518011;28;848;-58
2023/05/06 00:53:54;;;;;;;14.38;9.27;;;;;;;8.20;80.43;93523.31;517255;28;853;-60
2023/05/06 00:54:09;;;;;;;13.97;9.47;;;;;;;8.20;80.33;93518.56;517917;28;856;-60
2023/05/06 00:54:25;;;;;;;12.73;9.63;;;;;;;8.22;80.41;93524.28;515843;28;1063;-60
2023/05/06 00:54:41;;;;;;;12.20;9.45;;;;;;;8.21;80.30;93511.78;514359;28;1727;-59
2023/05/06 00:54:56;;;;;;;11.60;9.13;;;;;;;8.18;80.14;93518.38;512722;28;1542;-59
2023/05/06 00:55:12;;;;;;;11.57;9.20;;;;;;;8.18;80.08;93506.63;511790;29;1160;-60
2023/05/06 00:55:27;;;;;;;11.52;9.07;;;;;;;8.19;80.33;93517.06;511886;29;845;-60
2023/05/06 00:55:43;;;;;;;11.67;9.00;;;;;;;8.23;80.09;93517.50;511962;29;904;-59
2023/05/06 00:55:58;;;;;;;11.50;9.10;;;;;;;8.24;80.04;93509.97;512235;28;900;-60
2023/05/06 00:56:16;;;;;;;10.67;8.77;;;;;;;8.28;79.98;93513.91;511988;28;802;-60
2023/05/06 00:56:32;;;;;;;10.40;9.02;;;;;;;8.31;79.97;93510.13;511930;29;856;-59
2023/05/06 00:56:47;;;;;;;11.60;9.82;;;;;;;8.31;80.07;93509.38;513818;28;1153;-60
2023/05/06 00:57:03;;;;;;;11.43;9.60;;;;;;;8.30;79.68;93500.38;515897;28;1039;-60
2023/05/06 00:57:18;;;;;;;12.27;9.38;;;;;;;8.36;79.54;93511.25;515830;28;873;-60
2023/05/06 00:57:34;;;;;;;13.90;9.40;;;;;;;8.36;79.52;93514.75;513855;28;1488;-60
2023/05/06 00:57:51;;;;;;;13.25;9.55;;;;;;;8.38;79.62;93511.47;514195;28;1095;-60
2023/05/06 00:58:06;;;;;;;12.38;9.57;;;;;;;8.40;79.30;93517.19;514690;28;892;-60
2023/05/06 00:58:21;;;;;;;11.90;9.40;;;;;;;8.38;79.28;93512.19;515843;28;1103;-60
2023/05/06 00:58:37;;;;;;;13.10;9.85;;;;;;;8.40;79.30;93517.19;515762;28;912;-60
2023/05/06 00:58:53;;;;;;;12.38;9.77;;;;;;;8.39;79.20;93510.19;516126;28;1445;-60
2023/05/06 00:59:08;;;;;;;12.53;9.60;;;;;;;8.38;79.22;93514.94;516845;28;936;-60
2023/05/06 00:59:24;;;;;;;12.57;9.23;;;;;;;8.38;79.54;93514.94;515426;28;852;-60
2023/05/06 00:59:39;;;;;;;12.17;9.10;;;;;;;8.37;79.27;93510.72;513972;28;1162;-60
2023/05/06 00:59:55;;;;;;;12.43;9.13;;;;;;;8.38;79.52;93514.94;516278;28;835;-60
2023/05/06 01:00:10;;;;;;;11.07;8.80;;;;;;;8.39;79.47;93518.44;514052;28;649;-61
2023/05/06 01:00:26;;;;;;;11.13;9.23;;;;;;;8.43;79.36;93512.59;513837;28;1116;-60
2023/05/06 01:00:41;;;;;;;13.80;10.23;;;;;;;8.43;79.67;93510.59;513800;28;998;-60
2023/05/06 01:00:57;;;;;;;14.15;10.55;;;;;;;8.43;79.58;93518.09;516042;28;875;-59
2023/05/06 01:01:12;;;;;;;12.23;10.00;;;;;;;8.42;79.50;93511.88;515598;28;1632;-60
2023/05/06 01:01:30;;;;;;;12.52;9.55;;;;;;;8.39;79.66;93510.94;515871;28;838;-60
2023/05/06 01:01:46;;;;;;;12.55;9.77;;;;;;;8.39;79.62;93510.19;516245;28;822;-60
2023/05/06 01:02:01;;;;;;;11.90;10.18;;;;;;;8.40;79.55;93511.69;511880;29;1432;-61
2023/05/06 01:02:16;;;;;;;11.90;9.90;;;;;;;8.39;79.69;93521.19;512510;28;988;-60
2023/05/06 01:02:32;;;;;;;11.68;9.48;;;;;;;8.40;79.53;93511.69;513860;28;901;-60
2023/05/06 01:02:47;;;;;;;12.87;9.83;;;;;;;8.40;79.55;93517.91;514006;28;1132;-60
2023/05/06 01:03:03;;;;;;;12.98;9.57;;;;;;;8.43;79.50;93515.34;513886;28;1072;-60
2023/05/06 01:03:18;;;;;;;12.27;9.60;;;;;;;8.40;79.47;93508.94;513920;28;857;-60
2023/05/06 01:03:34;;;;;;;13.33;10.03;;;;;;;8.37;79.21;93513.47;513899;28;837;-60
2023/05/06 01:03:53;;;;;;;12.40;9.82;;;;;;;8.30;79.42;93510.63;514201;28;876;-60
2023/05/06 01:04:09;;;;;;;11.60;9.75;;;;;;;8.25;79.87;93503.97;514055;28;1097;-60
2023/05/06 01:04:24;;;;;;;11.98;9.95;;;;;;;8.25;79.77;93506.72;515887;28;1155;-60
2023/05/06 01:04:40;;;;;;;12.73;9.63;;;;;;;8.27;79.89;93508.97;515214;28;1795;-60
2023/05/06 01:04:55;;;;;;;13.25;9.25;;;;;;;8.24;80.07;93509.97;515557;28;813;-60
2023/05/06 01:05:11;;;;;;;13.53;9.50;;;;;;;8.25;80.22;93508.72;514293;28;778;-60
2023/05/06 01:05:32;;;;;;;13.85;9.98;;;;;;;8.23;80.47;93508.50;515324;28;1508;-60
2023/05/06 01:05:54;;;;;;;15.82;9.48;;;;;;;8.23;80.81;93505.75;516080;28;1107;-60
2023/05/06 01:06:24;;;;;;;13.65;9.30;;;;;;;8.22;80.74;93512.53;515740;28;857;-60
2023/05/06 01:06:57;;;;;;;12.15;9.52;;;;;;;8.25;81.18;93512.22;515834;28;807;-60
2023/05/06 01:07:40;;;;;;;15.00;10.15;;;;;;;8.27;81.06;93514.47;514149;28;1096;-60
2023/05/06 01:08:12;;;;;;;12.98;9.52;;;;;;;8.28;81.04;93510.41;515862;28;827;-61
2023/05/06 01:08:33;;;;;;;13.18;9.32;;;;;;;8.28;81.05;93513.16;513691;28;897;-60
2023/05/06 01:08:56;;;;;;;11.15;9.02;;;;;;;8.29;80.78;93509.16;511974;28;1989;-61
2023/05/06 01:09:23;;;;;;;10.57;8.30;;;;;;;8.27;80.89;93509.69;511856;29;896;-60
2023/05/06 01:09:46;;;;;;;12.65;8.75;;;;;;;8.18;81.29;93523.13;511887;28;839;-60
2023/05/06 01:10:25;;;;;;;12.02;9.07;;;;;;;7.99;83.08;93517.72;513768;28;833;-60
2023/05/06 01:10:45;;;;;;;17.27;11.38;;;;;;;7.88;84.80;93515.22;514759;28;1576;-60
2023/05/06 01:11:27;;;;;;;18.42;12.57;;;;;;;7.88;85.58;93519.97;511855;29;861;-61
2023/05/06 01:11:49;;;;;;;13.00;10.02;;;;;;;7.91;87.02;93516.16;513092;28;1116;-61
2023/05/06 01:12:13;;;;;;;11.95;9.02;;;;;;;7.95;87.34;93513.84;509899;29;1225;-60
2023/05/06 01:12:33;;;;;;;11.15;9.30;;;;;;;7.94;87.63;93515.84;509869;28;877;-58
2023/05/06 01:13:13;;;;;;;11.80;9.52;;;;;;;7.95;88.11;93513.84;509138;29;865;-59
2023/05/06 01:13:42;;;;;;;11.20;8.60;;;;;;;8.02;88.05;93515.94;511875;28;1023;-59
2023/05/06 01:14:14;;;;;;;11.30;8.80;;;;;;;8.01;87.99;93514.47;512209;28;831;-59
2023/05/06 01:14:37;;;;;;;12.25;8.90;;;;;;;8.03;87.99;93518.16;511870;29;818;-59
2023/05/06 01:14:56;;;;;;;12.48;8.43;;;;;;;8.05;88.14;93512.88;514409;28;1129;-59
2023/05/06 01:15:21;;;;;;;12.90;9.25;;;;;;;8.08;88.10;93514.56;513397;28;858;-59
2023/05/06 01:15:54;;;;;;;12.05;8.90;;;;;;;8.17;87.64;93514.13;509816;28;885;-59
2023/05/06 01:16:12;;;;;;;13.05;9.52;;;;;;;8.13;88.07;93521.22;509836;28;853;-60
2023/05/06 01:16:29;;;;;;;12.60;9.38;;;;;;;8.08;88.46;93511.06;511264;29;903;-59
2023/05/06 01:16:46;;;;;;;12.43;9.13;;;;;;;8.11;88.36;93518.25;513958;28;1330;-59
2023/05/06 01:17:05;;;;;;;13.45;9.45;;;;;;;8.16;88.58;93517.41;511816;28;1224;-59
2023/05/06 01:17:26;;;;;;;13.38;9.38;;;;;;;8.18;88.50;93510.13;511829;29;868;-59
2023/05/06 01:17:45;;;;;;;13.52;9.05;;;;;;;8.22;88.63;93510.53;512004;28;997;-59
2023/05/06 01:18:03;;;;;;;14.98;9.30;;;;;;;8.28;88.55;93505.66;513770;28;1239;-59
2023/05/06 01:18:21;;;;;;;13.70;9.70;;;;;;;8.31;88.24;93515.63;511862;28;908;-59
2023/05/06 01:18:37;;;;;;;13.15;10.05;;;;;;;8.28;87.86;93516.66;511680;29;1143;-59
2023/05/06 01:18:53;;;;;;;14.45;10.68;;;;;;;8.20;88.07;93510.31;513672;28;817;-59
2023/05/06 01:19:33;;;;;;;14.75;10.82;;;;;;;8.20;88.10;93509.56;513786;28;880;-59
2023/05/06 01:19:50;;;;;;;12.10;9.75;;;;;;;8.27;88.11;93519.97;515865;28;947;-59
2023/05/06 01:20:06;;;;;;;12.50;9.85;;;;;;;8.28;88.28;93507.66;513880;28;1576;-59
2023/05/06 01:20:24;;;;;;;11.77;9.98;;;;;;;8.34;87.66;93509.03;513921;28;1168;-59
2023/05/06 01:20:40;;;;;;;12.95;10.07;;;;;;;8.20;87.87;93482.06;513732;28;874;-59
2023/05/06 01:20:56;;;;;;;14.18;10.57;;;;;;;8.35;87.55;93504.28;517174;28;1588;-60
2023/05/06 01:21:12;;;;;;;14.48;10.88;;;;;;;8.40;87.32;93506.91;513652;28;873;-60
2023/05/06 01:21:33;;;;;;;15.65;11.40;;;;;;;8.42;87.40;93509.13;511731;29;821;-59